createdAt,value
2023-10-28T00:01:12.957Z,81.35
2023-10-28T00:03:45.643Z,82.00
2023-10-28T00:06:18.606Z,81.34
2023-10-28T00:08:52.601Z,81.22
2023-10-28T00:11:26.077Z,81.26
2023-10-28T00:13:58.781Z,81.78
2023-10-28T00:16:31.892Z,81.36
2023-10-28T00:19:05.458Z,81.14
2023-10-28T00:21:38.686Z,81.19
2023-10-28T00:24:13.475Z,81.71
2023-10-28T00:26:45.972Z,81.69
2023-10-28T00:29:19.178Z,81.80
2023-10-28T00:31:52.794Z,81.73
2023-10-28T00:34:25.315Z,81.51
2023-10-28T00:36:58.271Z,81.47
2023-10-28T00:39:32.511Z,81.71
2023-10-28T00:42:06.048Z,81.84
2023-10-28T00:44:38.582Z,81.79
2023-10-28T00:47:14.294Z,81.75
2023-10-28T00:49:47.152Z,82.09
2023-10-28T00:52:21.483Z,82.06
2023-10-28T00:54:57.829Z,81.83
2023-10-28T00:57:33.807Z,81.61
2023-10-28T01:00:07.888Z,81.52
2023-10-28T01:02:44.235Z,81.73
2023-10-28T01:05:17.594Z,81.69
2023-10-28T01:07:51.830Z,81.65
2023-10-28T01:10:30.944Z,81.34
2023-10-28T01:13:09.453Z,81.71
2023-10-28T01:15:42.530Z,81.30
2023-10-28T01:18:17.318Z,81.83
2023-10-28T01:20:50.539Z,81.50
2023-10-28T01:23:24.777Z,81.87
2023-10-28T01:25:58.091Z,81.85
2023-10-28T01:28:30.987Z,81.76
2023-10-28T01:31:04.369Z,81.48
2023-10-28T01:33:37.248Z,81.65
2023-10-28T01:36:10.267Z,81.81
2023-10-28T01:38:44.620Z,81.60
2023-10-28T01:41:18.230Z,81.80
2023-10-28T01:43:52.000Z,81.63
2023-10-28T01:46:25.403Z,81.68
2023-10-28T01:48:57.991Z,81.84
2023-10-28T01:51:31.178Z,81.62
2023-10-28T01:54:06.137Z,81.73
2023-10-28T01:56:39.888Z,81.80
2023-10-28T01:59:14.365Z,81.87
2023-10-28T02:01:47.706Z,81.89
2023-10-28T02:04:20.617Z,82.19
2023-10-28T02:06:54.460Z,82.14
2023-10-28T02:09:29.686Z,81.68
2023-10-28T02:12:05.742Z,81.85
2023-10-28T02:14:41.860Z,82.00
2023-10-28T02:17:15.405Z,81.58
2023-10-28T02:19:49.435Z,81.83
2023-10-28T02:22:22.501Z,82.01
2023-10-28T02:24:56.485Z,81.89
2023-10-28T02:27:29.740Z,81.90
2023-10-28T02:30:02.463Z,81.95
2023-10-28T02:32:36.716Z,82.10
2023-10-28T02:35:09.666Z,82.00
2023-10-28T02:37:42.846Z,81.92
2023-10-28T02:40:17.253Z,82.19
2023-10-28T02:42:51.421Z,82.24
2023-10-28T02:45:24.128Z,82.30
2023-10-28T02:47:57.419Z,82.25
2023-10-28T02:50:30.330Z,81.93
2023-10-28T02:53:02.986Z,82.13
2023-10-28T02:55:38.659Z,82.39
2023-10-28T02:58:11.429Z,82.12
2023-10-28T03:00:45.202Z,82.56
2023-10-28T03:03:17.778Z,81.88
2023-10-28T03:05:53.890Z,82.30
2023-10-28T03:08:26.411Z,81.97
2023-10-28T03:11:01.541Z,82.38
2023-10-28T03:13:35.193Z,82.31
2023-10-28T03:16:10.273Z,82.76
2023-10-28T03:18:43.205Z,82.65
2023-10-28T03:21:16.977Z,82.67
2023-10-28T03:23:49.554Z,82.16
2023-10-28T03:26:24.718Z,82.78
2023-10-28T03:28:57.663Z,82.51
2023-10-28T03:31:30.920Z,82.59
2023-10-28T03:34:03.477Z,82.63
2023-10-28T03:36:36.753Z,82.33
2023-10-28T03:39:09.677Z,82.49
2023-10-28T03:41:46.362Z,82.73
2023-10-28T03:44:19.166Z,82.75
2023-10-28T03:46:53.040Z,82.43
2023-10-28T03:49:25.611Z,82.47
2023-10-28T03:51:58.614Z,82.83
2023-10-28T03:54:31.248Z,82.37
2023-10-28T03:57:06.294Z,82.45
2023-10-28T03:59:38.890Z,82.44
2023-10-28T04:02:11.772Z,82.41
2023-10-28T04:04:45.280Z,82.19
2023-10-28T04:07:18.898Z,82.46
2023-10-28T04:09:51.413Z,82.35
2023-10-28T04:12:26.269Z,82.36
2023-10-28T04:14:58.986Z,82.53
2023-10-28T04:17:33.462Z,82.39
2023-10-28T04:20:07.943Z,82.74
2023-10-28T04:22:40.479Z,82.62
2023-10-28T04:25:13.761Z,82.29
2023-10-28T04:27:47.842Z,82.21
2023-10-28T04:30:21.387Z,82.34
2023-10-28T04:32:54.265Z,82.54
2023-10-28T04:35:28.938Z,82.44
2023-10-28T04:38:01.990Z,82.17
2023-10-28T04:40:34.939Z,82.58
2023-10-28T04:43:09.182Z,82.17
2023-10-28T04:45:43.717Z,82.28
2023-10-28T04:48:16.846Z,82.39
2023-10-28T04:51:08.431Z,82.28
2023-10-28T04:53:41.351Z,82.44
2023-10-28T04:56:14.063Z,82.13
2023-10-28T04:58:48.576Z,82.22
2023-10-28T05:01:22.792Z,82.08
2023-10-28T05:03:55.519Z,82.27
2023-10-28T05:06:28.919Z,82.24
2023-10-28T05:09:01.405Z,82.56
2023-10-28T05:11:34.742Z,82.47
2023-10-28T05:14:11.269Z,82.22
2023-10-28T05:16:44.543Z,82.24
2023-10-28T05:19:20.276Z,82.36
2023-10-28T05:21:52.816Z,82.13
2023-10-28T05:24:25.984Z,81.95
2023-10-28T05:26:59.180Z,82.28
2023-10-28T05:29:33.317Z,82.20
2023-10-28T05:32:06.861Z,82.21
2023-10-28T05:34:40.084Z,81.86
2023-10-28T05:37:13.068Z,82.31
2023-10-28T05:39:48.366Z,81.84
2023-10-28T05:42:21.493Z,82.12
2023-10-28T05:44:56.277Z,81.92
2023-10-28T05:47:29.149Z,82.16
2023-10-28T05:50:06.638Z,81.59
2023-10-28T05:52:42.710Z,82.15
2023-10-28T05:55:15.264Z,81.78
2023-10-28T05:57:48.433Z,81.90
2023-10-28T06:00:22.789Z,81.94
2023-10-28T06:02:55.818Z,81.85
2023-10-28T06:05:28.512Z,81.89
2023-10-28T06:08:01.890Z,81.92
2023-10-28T06:10:36.152Z,82.16
2023-10-28T06:13:10.377Z,81.87
2023-10-28T06:15:45.514Z,81.65
2023-10-28T06:18:20.444Z,81.83
2023-10-28T06:20:53.837Z,81.75
2023-10-28T06:23:27.236Z,81.54
2023-10-28T06:26:00.024Z,81.62
2023-10-28T06:28:33.421Z,81.79
2023-10-28T06:31:07.454Z,81.78
2023-10-28T06:33:40.851Z,81.73
2023-10-28T06:36:14.204Z,81.79
2023-10-28T06:38:50.074Z,81.40
2023-10-28T06:41:22.813Z,81.41
2023-10-28T06:43:56.233Z,81.36
2023-10-28T06:46:30.949Z,81.52
2023-10-28T06:49:04.490Z,81.26
2023-10-28T06:51:37.118Z,81.51
2023-10-28T06:54:10.459Z,81.36
2023-10-28T06:56:43.546Z,81.42
2023-10-28T06:59:17.326Z,81.47
2023-10-28T07:01:51.484Z,81.73
2023-10-28T07:04:24.396Z,81.56
2023-10-28T07:06:57.389Z,81.44
2023-10-28T07:09:30.209Z,81.31
2023-10-28T07:12:04.822Z,81.46
2023-10-28T07:14:38.374Z,80.90
2023-10-28T07:17:12.818Z,81.16
2023-10-28T07:19:45.970Z,81.66
2023-10-28T07:22:21.398Z,81.35
2023-10-28T07:24:57.378Z,81.41
2023-10-28T07:27:31.240Z,81.35
2023-10-28T07:30:05.763Z,81.53
2023-10-28T07:32:41.400Z,81.12
2023-10-28T07:35:14.161Z,81.48
2023-10-28T07:37:47.898Z,81.69
2023-10-28T07:40:21.350Z,81.39
2023-10-28T07:42:53.838Z,81.21
2023-10-28T07:45:27.237Z,81.06
2023-10-28T07:48:01.401Z,80.89
2023-10-28T07:50:35.186Z,80.64
2023-10-28T07:53:08.014Z,81.18
2023-10-28T07:55:40.960Z,80.69
2023-10-28T07:58:13.602Z,81.06
2023-10-28T08:00:47.528Z,80.98
2023-10-28T08:03:22.401Z,81.32
2023-10-28T08:05:57.518Z,81.25
2023-10-28T08:08:32.945Z,81.43
2023-10-28T08:13:41.474Z,81.25
2023-10-28T08:16:14.429Z,81.30
2023-10-28T08:18:49.326Z,81.23
2023-10-28T08:21:22.379Z,81.72
2023-10-28T08:23:55.406Z,81.39
2023-10-28T08:26:28.718Z,81.30
2023-10-28T08:29:01.654Z,81.02
2023-10-28T08:31:35.540Z,81.31
2023-10-28T08:34:09.806Z,81.51
2023-10-28T08:36:45.735Z,81.47
2023-10-28T08:39:18.290Z,81.61
2023-10-28T08:41:52.482Z,81.83
2023-10-28T08:44:30.035Z,81.92
2023-10-28T08:47:08.352Z,81.21
2023-10-28T08:49:48.396Z,81.93
2023-10-28T08:52:25.333Z,81.86
2023-10-28T08:55:03.225Z,81.80
2023-10-28T08:57:36.805Z,81.98
2023-10-28T09:00:15.850Z,81.55
2023-10-28T09:02:53.675Z,81.57
2023-10-28T09:05:27.891Z,81.36
2023-10-28T09:08:01.007Z,81.53
2023-10-28T09:10:36.142Z,81.48
2023-10-28T09:13:09.105Z,81.44
2023-10-28T09:15:42.414Z,82.16
2023-10-28T09:18:15.255Z,81.77
2023-10-28T09:20:50.350Z,81.75
2023-10-28T09:23:24.997Z,81.85
2023-10-28T09:25:58.127Z,81.97
2023-10-28T09:28:31.050Z,81.76
2023-10-28T09:31:06.512Z,81.99
2023-10-28T09:33:39.763Z,81.99
2023-10-28T09:36:15.174Z,82.03
2023-10-28T09:38:48.692Z,82.21
2023-10-28T09:41:22.965Z,82.17
2023-10-28T09:43:57.086Z,82.41
2023-10-28T09:46:32.861Z,82.31
2023-10-28T09:49:11.066Z,82.13
2023-10-28T09:51:51.232Z,81.92
2023-10-28T09:54:30.064Z,81.88
2023-10-28T09:57:04.123Z,82.31
2023-10-28T09:59:40.959Z,82.33
2023-10-28T10:02:28.698Z,82.29
2023-10-28T10:05:07.055Z,83.20
2023-10-28T10:07:41.749Z,82.53
2023-10-28T10:10:15.351Z,82.33
2023-10-28T10:12:55.609Z,82.37
2023-10-28T10:15:32.718Z,82.58
2023-10-28T10:18:12.106Z,81.81
2023-10-28T10:20:46.047Z,82.20
2023-10-28T10:23:20.595Z,81.84
2023-10-28T10:25:56.682Z,81.81
2023-10-28T10:28:31.170Z,82.23
2023-10-28T10:31:12.718Z,82.67
2023-10-28T10:33:45.697Z,82.66
2023-10-28T10:36:27.420Z,82.54
2023-10-28T10:39:18.358Z,82.10
2023-10-28T10:41:54.842Z,81.78
2023-10-28T10:44:35.451Z,81.71
2023-10-28T10:47:10.191Z,81.40
2023-10-28T10:49:44.801Z,81.82
2023-10-28T10:52:20.393Z,82.03
2023-10-28T10:54:55.084Z,81.83
2023-10-28T10:57:28.149Z,81.88
2023-10-28T11:00:01.679Z,81.83
2023-10-28T11:02:37.227Z,82.50
2023-10-28T11:05:11.575Z,82.79
2023-10-28T11:07:44.873Z,82.82
2023-10-28T11:10:20.901Z,82.75
2023-10-28T11:12:54.048Z,82.67
2023-10-28T11:15:26.977Z,82.70
2023-10-28T11:18:00.077Z,82.59
2023-10-28T11:20:33.452Z,82.73
2023-10-28T11:23:08.290Z,82.24
2023-10-28T11:25:43.661Z,82.33
2023-10-28T11:28:16.807Z,82.11
2023-10-28T11:30:51.358Z,82.32
2023-10-28T11:33:29.304Z,82.42
2023-10-28T11:36:03.702Z,82.60
2023-10-28T11:38:37.019Z,82.79
2023-10-28T11:41:12.641Z,83.09
2023-10-28T11:43:49.748Z,82.97
2023-10-28T11:46:23.286Z,82.78
2023-10-28T11:48:57.501Z,82.83
2023-10-28T11:51:31.614Z,82.91
2023-10-28T11:54:05.346Z,82.67
2023-10-28T11:56:40.325Z,82.78
2023-10-28T11:59:12.901Z,83.38
2023-10-28T12:01:46.336Z,83.21
2023-10-28T12:04:19.761Z,83.07
2023-10-28T12:06:53.041Z,82.99
2023-10-28T12:09:26.390Z,83.05
2023-10-28T12:12:01.074Z,83.23
2023-10-28T12:14:34.040Z,82.86
2023-10-28T12:17:09.028Z,83.01
2023-10-28T12:19:41.661Z,82.64
2023-10-28T12:22:15.194Z,82.57
2023-10-28T12:24:47.982Z,83.31
2023-10-28T12:27:22.112Z,82.87
2023-10-28T12:29:54.843Z,82.83
2023-10-28T12:32:27.984Z,82.85
2023-10-28T12:35:01.284Z,83.25
2023-10-28T12:37:36.719Z,82.95
2023-10-28T12:40:13.791Z,82.95
2023-10-28T12:42:49.576Z,83.19
2023-10-28T12:45:22.745Z,83.41
2023-10-28T12:47:55.764Z,83.56
2023-10-28T12:50:28.506Z,83.12
2023-10-28T12:53:01.540Z,83.45
2023-10-28T12:55:34.287Z,83.36
2023-10-28T12:58:12.122Z,83.38
2023-10-28T13:00:46.198Z,83.67
2023-10-28T13:03:19.025Z,83.53
2023-10-28T13:05:52.488Z,83.38
2023-10-28T13:08:25.244Z,82.99
2023-10-28T13:10:58.478Z,82.89
2023-10-28T13:13:32.505Z,83.59
2023-10-28T13:16:06.374Z,83.40
2023-10-28T13:18:40.658Z,83.27
2023-10-28T13:21:14.796Z,83.31
2023-10-28T13:23:47.571Z,83.01
2023-10-28T13:26:20.433Z,82.88
2023-10-28T13:28:55.071Z,82.85
2023-10-28T13:31:27.692Z,82.48
2023-10-28T13:34:02.446Z,82.79
2023-10-28T13:36:35.687Z,82.81
2023-10-28T13:39:11.437Z,82.45
2023-10-28T13:41:46.315Z,82.75
2023-10-28T13:44:20.580Z,82.44
2023-10-28T13:46:54.016Z,83.10
2023-10-28T13:49:26.978Z,82.91
2023-10-28T13:52:02.034Z,82.63
2023-10-28T13:54:35.205Z,82.36
2023-10-28T13:57:08.156Z,82.86
2023-10-28T13:59:44.331Z,82.19
2023-10-28T14:02:17.509Z,83.07
2023-10-28T14:04:50.321Z,83.36
2023-10-28T14:07:23.212Z,82.47
2023-10-28T14:09:57.751Z,82.77
2023-10-28T14:12:30.633Z,83.19
2023-10-28T14:15:07.534Z,82.67
2023-10-28T14:17:41.316Z,82.87
2023-10-28T14:20:14.155Z,82.76
2023-10-28T14:22:47.093Z,83.19
2023-10-28T14:25:20.130Z,83.31
2023-10-28T14:27:53.355Z,83.80
2023-10-28T14:30:29.784Z,83.82
2023-10-28T14:33:05.760Z,83.60
2023-10-28T14:35:38.817Z,83.66
2023-10-28T14:38:11.834Z,83.66
2023-10-28T14:40:44.420Z,83.71
2023-10-28T14:43:17.420Z,83.72
2023-10-28T14:45:52.020Z,83.10
2023-10-28T14:48:27.986Z,83.69
2023-10-28T14:51:01.149Z,83.77
2023-10-28T14:53:34.219Z,83.88
2023-10-28T14:56:12.794Z,84.04
2023-10-28T14:58:45.966Z,83.90
2023-10-28T15:01:20.221Z,84.03
2023-10-28T15:03:54.179Z,83.90
2023-10-28T15:06:27.314Z,83.05
2023-10-28T15:09:00.230Z,83.19
2023-10-28T15:11:37.783Z,83.44
2023-10-28T15:14:11.244Z,83.76
2023-10-28T15:16:46.872Z,84.02
2023-10-28T15:19:20.170Z,84.13
2023-10-28T15:21:53.125Z,83.52
2023-10-28T15:24:26.804Z,84.14
2023-10-28T15:26:59.477Z,84.00
2023-10-28T15:29:33.021Z,84.05
2023-10-28T15:32:07.514Z,83.64
2023-10-28T15:34:47.000Z,83.91
2023-10-28T15:37:20.052Z,83.71
2023-10-28T15:39:53.413Z,83.57
2023-10-28T15:42:26.425Z,83.93
2023-10-28T15:44:59.273Z,83.68
2023-10-28T15:47:33.731Z,83.22
2023-10-28T15:50:07.779Z,83.04
2023-10-28T15:52:40.580Z,83.69
2023-10-28T15:55:13.555Z,83.79
2023-10-28T15:57:47.027Z,83.76
2023-10-28T16:00:20.776Z,83.82
2023-10-28T16:03:00.235Z,83.94
2023-10-28T16:05:39.285Z,83.74
2023-10-28T16:08:11.881Z,84.38
2023-10-28T16:10:45.278Z,83.91
2023-10-28T16:13:18.274Z,83.07
2023-10-28T16:15:51.204Z,83.45
2023-10-28T16:18:25.854Z,83.56
2023-10-28T16:21:02.295Z,83.28
2023-10-28T16:23:38.447Z,83.20
2023-10-28T16:26:12.122Z,82.98
2023-10-28T16:28:45.011Z,83.17
2023-10-28T16:31:17.536Z,83.21
2023-10-28T16:33:52.158Z,83.19
2023-10-28T16:36:25.711Z,83.37
2023-10-28T16:38:58.978Z,83.19
2023-10-28T16:44:21.887Z,83.55
2023-10-28T16:46:54.522Z,83.62
2023-10-28T16:49:28.908Z,83.45
2023-10-28T16:52:02.070Z,83.34
2023-10-28T16:54:35.420Z,83.83
2023-10-28T16:57:09.378Z,83.56
2023-10-28T16:59:42.224Z,83.45
2023-10-28T17:02:15.150Z,83.60
2023-10-28T17:04:49.842Z,83.23
2023-10-28T17:07:24.230Z,83.06
2023-10-28T17:09:57.598Z,83.44
2023-10-28T17:12:30.594Z,83.90
2023-10-28T17:15:03.781Z,84.02
2023-10-28T17:17:38.921Z,83.70
2023-10-28T17:20:13.455Z,83.93
2023-10-28T17:22:46.504Z,83.66
2023-10-28T17:25:19.929Z,83.97
2023-10-28T17:27:55.330Z,83.81
2023-10-28T17:30:28.237Z,83.48
2023-10-28T17:33:01.804Z,83.62
2023-10-28T17:35:37.229Z,83.40
2023-10-28T17:38:10.287Z,83.38
2023-10-28T17:40:44.245Z,83.27
2023-10-28T17:43:16.745Z,83.53
2023-10-28T17:45:50.756Z,83.75
2023-10-28T17:48:23.659Z,83.38
2023-10-28T17:50:59.438Z,84.13
2023-10-28T17:53:32.910Z,83.55
2023-10-28T17:56:10.314Z,84.00
2023-10-28T17:58:49.362Z,83.39
2023-10-28T18:01:22.736Z,83.46
2023-10-28T18:03:55.934Z,83.59
2023-10-28T18:06:30.898Z,83.47
2023-10-28T18:09:04.757Z,83.67
2023-10-28T18:11:37.700Z,83.38
2023-10-28T18:14:10.414Z,83.93
2023-10-28T18:16:43.206Z,83.65
2023-10-28T18:19:16.237Z,84.06
2023-10-28T18:21:51.965Z,83.52
2023-10-28T18:24:24.796Z,83.28
2023-10-28T18:26:57.737Z,83.44
2023-10-28T18:29:32.529Z,83.96
2023-10-28T18:32:07.267Z,83.60
2023-10-28T18:34:47.390Z,83.66
2023-10-28T18:37:23.657Z,83.23
2023-10-28T18:39:56.468Z,83.07
2023-10-28T18:42:29.811Z,83.45
2023-10-28T18:45:03.147Z,83.36
2023-10-28T18:47:41.252Z,83.44
2023-10-28T18:50:18.076Z,83.89
2023-10-28T18:52:52.780Z,83.47
2023-10-28T18:55:26.763Z,83.88
2023-10-28T18:57:59.711Z,84.35
2023-10-28T19:00:32.623Z,83.92
2023-10-28T19:03:07.362Z,83.45
2023-10-28T19:05:40.541Z,83.74
2023-10-28T19:08:15.128Z,83.79
2023-10-28T19:10:54.132Z,83.66
2023-10-28T19:13:27.275Z,84.26
2023-10-28T19:16:00.499Z,84.04
2023-10-28T19:18:35.059Z,84.22
2023-10-28T19:21:09.748Z,84.05
2023-10-28T19:23:45.705Z,84.17
2023-10-28T19:26:19.629Z,84.14
2023-10-28T19:28:52.351Z,84.15
2023-10-28T19:31:25.338Z,84.17
2023-10-28T19:34:01.679Z,83.88
2023-10-28T19:36:34.906Z,84.20
2023-10-28T19:39:08.889Z,84.17
2023-10-28T19:41:41.873Z,84.05
2023-10-28T19:44:15.163Z,84.47
2023-10-28T19:46:50.557Z,84.36
2023-10-28T19:49:23.063Z,83.87
2023-10-28T19:51:56.224Z,84.25
2023-10-28T19:54:31.658Z,84.14
2023-10-28T19:57:05.473Z,83.87
2023-10-28T19:59:38.212Z,84.13
2023-10-28T20:02:11.823Z,84.64
2023-10-28T20:04:44.610Z,84.34
2023-10-28T20:07:18.398Z,84.30
2023-10-28T20:09:52.617Z,84.54
2023-10-28T20:12:26.196Z,84.51
2023-10-28T20:14:59.197Z,83.90
2023-10-28T20:17:32.170Z,83.96
2023-10-28T20:20:10.032Z,84.36
2023-10-28T20:22:43.540Z,84.19
2023-10-28T20:25:18.420Z,84.02
2023-10-28T20:27:51.803Z,84.27
2023-10-28T20:30:24.857Z,84.12
2023-10-28T20:32:58.064Z,84.23
2023-10-28T20:35:31.212Z,84.49
2023-10-28T20:38:04.558Z,84.29
2023-10-28T20:40:39.025Z,84.03
2023-10-28T20:43:11.536Z,84.25
2023-10-28T20:45:44.868Z,84.21
2023-10-28T20:48:19.218Z,84.22
2023-10-28T20:50:52.588Z,84.48
2023-10-28T20:53:25.307Z,84.41
2023-10-28T20:56:00.041Z,84.39
2023-10-28T20:58:33.177Z,84.00
2023-10-28T21:01:06.082Z,84.18
2023-10-28T21:03:39.528Z,84.35
2023-10-28T21:06:12.220Z,84.53
2023-10-28T21:08:45.436Z,83.73
2023-10-28T21:11:19.323Z,84.09
2023-10-28T21:13:52.830Z,84.25
2023-10-28T21:16:25.424Z,84.01
2023-10-28T21:18:58.355Z,84.15
2023-10-28T21:21:31.386Z,84.13
2023-10-28T21:24:04.834Z,83.96
2023-10-28T21:26:39.381Z,83.87
2023-10-28T21:29:12.742Z,84.03
2023-10-28T21:31:46.223Z,84.03
2023-10-28T21:34:19.826Z,83.84
2023-10-28T21:36:52.504Z,84.05
2023-10-28T21:39:25.778Z,84.18
2023-10-28T21:42:00.458Z,83.91
2023-10-28T21:44:33.835Z,84.15
2023-10-28T21:47:07.062Z,83.92
2023-10-28T21:49:40.271Z,83.78
2023-10-28T21:52:13.053Z,84.01
2023-10-28T21:54:46.429Z,84.12
2023-10-28T21:57:20.585Z,83.85
2023-10-28T21:59:53.922Z,83.70
2023-10-28T22:02:26.614Z,83.45
2023-10-28T22:04:59.681Z,83.77
2023-10-28T22:07:32.506Z,83.91
2023-10-28T22:10:06.252Z,83.78
2023-10-28T22:12:40.759Z,84.16
2023-10-28T22:15:13.660Z,83.70
2023-10-28T22:17:47.140Z,83.89
2023-10-28T22:20:20.405Z,83.97
2023-10-28T22:22:53.537Z,84.24
2023-10-28T22:25:26.481Z,84.04
2023-10-28T22:28:13.503Z,84.08
2023-10-28T22:30:47.651Z,83.92
2023-10-28T22:33:20.940Z,83.79
2023-10-28T22:35:53.930Z,83.82
2023-10-28T22:38:27.402Z,83.62
2023-10-28T22:41:00.403Z,83.81
2023-10-28T22:43:34.391Z,83.56
2023-10-28T22:46:07.547Z,83.79
2023-10-28T22:48:40.636Z,83.70
2023-10-28T22:51:13.979Z,83.36
2023-10-28T22:53:47.662Z,83.77
2023-10-28T22:56:21.010Z,83.54
2023-10-28T22:58:55.390Z,83.54
2023-10-28T23:01:27.961Z,83.64
2023-10-28T23:04:01.070Z,83.65
2023-10-28T23:06:33.766Z,83.53
2023-10-28T23:09:07.643Z,83.72
2023-10-28T23:11:43.086Z,83.45
2023-10-28T23:14:17.816Z,83.53
2023-10-28T23:16:50.399Z,83.59
2023-10-28T23:19:23.606Z,83.85
2023-10-28T23:21:56.449Z,83.78
2023-10-28T23:24:31.013Z,83.76
2023-10-28T23:27:03.686Z,83.50
2023-10-28T23:29:38.308Z,83.89
2023-10-28T23:32:11.279Z,83.80
2023-10-28T23:34:44.571Z,83.28
2023-10-28T23:37:17.464Z,83.75
2023-10-28T23:39:50.709Z,83.22
2023-10-28T23:42:23.371Z,83.93
2023-10-28T23:44:58.105Z,83.69
2023-10-28T23:47:30.658Z,83.48
2023-10-28T23:50:04.785Z,83.59
2023-10-28T23:52:38.099Z,83.40
2023-10-28T23:55:11.080Z,83.77
2023-10-28T23:57:43.620Z,83.66
